sensor_id;sensor_type;location;lat;lon;timestamp;temperature;humidity
20526;DHT22;10421;49.142;9.232;2022-11-30T00:00:57;11.50;98.80
20526;DHT22;10421;49.142;9.232;2022-11-30T00:03:24;11.50;98.80
20526;DHT22;10421;49.142;9.232;2022-11-30T00:05:53;11.50;98.70
20526;DHT22;10421;49.142;9.232;2022-11-30T00:08:25;11.50;98.80
20526;DHT22;10421;49.142;9.232;2022-11-30T00:10:53;11.50;98.80
20526;DHT22;10421;49.142;9.232;2022-11-30T00:13:20;11.50;98.80
20526;DHT22;10421;49.142;9.232;2022-11-30T00:15:47;11.50;98.80
20526;DHT22;10421;49.142;9.232;2022-11-30T00:18:14;11.50;98.70
20526;DHT22;10421;49.142;9.232;2022-11-30T00:20:42;11.60;98.80
20526;DHT22;10421;49.142;9.232;2022-11-30T00:23:09;11.60;98.80
20526;DHT22;10421;49.142;9.232;2022-11-30T00:25:37;11.50;98.70
20526;DHT22;10421;49.142;9.232;2022-11-30T00:28:04;11.50;98.80
20526;DHT22;10421;49.142;9.232;2022-11-30T00:30:30;11.50;98.70
20526;DHT22;10421;49.142;9.232;2022-11-30T00:32:57;11.50;98.80
20526;DHT22;10421;49.142;9.232;2022-11-30T00:35:24;11.50;98.70
20526;DHT22;10421;49.142;9.232;2022-11-30T00:37:50;11.50;98.80
20526;DHT22;10421;49.142;9.232;2022-11-30T00:40:17;11.50;98.70
20526;DHT22;10421;49.142;9.232;2022-11-30T00:42:45;11.50;98.70
20526;DHT22;10421;49.142;9.232;2022-11-30T00:45:12;11.50;98.70
20526;DHT22;10421;49.142;9.232;2022-11-30T00:47:39;11.50;98.70
20526;DHT22;10421;49.142;9.232;2022-11-30T00:50:07;11.50;98.60
20526;DHT22;10421;49.142;9.232;2022-11-30T00:52:33;11.40;98.60
20526;DHT22;10421;49.142;9.232;2022-11-30T00:55:00;11.40;98.70
20526;DHT22;10421;49.142;9.232;2022-11-30T00:57:27;11.40;98.60
20526;DHT22;10421;49.142;9.232;2022-11-30T00:59:55;11.40;98.70
20526;DHT22;10421;49.142;9.232;2022-11-30T01:02:22;11.40;98.70
20526;DHT22;10421;49.142;9.232;2022-11-30T01:04:48;11.30;98.60
20526;DHT22;10421;49.142;9.232;2022-11-30T01:07:15;11.30;98.70
20526;DHT22;10421;49.142;9.232;2022-11-30T01:09:42;11.30;98.80
20526;DHT22;10421;49.142;9.232;2022-11-30T01:12:09;11.20;98.80
20526;DHT22;10421;49.142;9.232;2022-11-30T01:14:35;11.20;98.80
20526;DHT22;10421;49.142;9.232;2022-11-30T01:17:03;11.20;98.80
20526;DHT22;10421;49.142;9.232;2022-11-30T01:19:30;11.20;98.80
20526;DHT22;10421;49.142;9.232;2022-11-30T01:21:57;11.30;98.90
20526;DHT22;10421;49.142;9.232;2022-11-30T01:24:24;11.30;98.90
20526;DHT22;10421;49.142;9.232;2022-11-30T01:26:51;11.30;98.90
20526;DHT22;10421;49.142;9.232;2022-11-30T01:29:17;11.30;98.90
20526;DHT22;10421;49.142;9.232;2022-11-30T01:31:44;11.30;98.90
20526;DHT22;10421;49.142;9.232;2022-11-30T01:34:12;11.30;98.90
20526;DHT22;10421;49.142;9.232;2022-11-30T01:36:39;11.30;98.90
20526;DHT22;10421;49.142;9.232;2022-11-30T01:39:07;11.20;98.80
20526;DHT22;10421;49.142;9.232;2022-11-30T01:41:35;11.20;98.90
20526;DHT22;10421;49.142;9.232;2022-11-30T01:44:46;11.20;98.90
20526;DHT22;10421;49.142;9.232;2022-11-30T01:47:14;11.20;98.90
20526;DHT22;10421;49.142;9.232;2022-11-30T01:49:44;11.20;98.90
20526;DHT22;10421;49.142;9.232;2022-11-30T01:52:15;11.30;99.00
20526;DHT22;10421;49.142;9.232;2022-11-30T01:54:45;11.30;99.10
20526;DHT22;10421;49.142;9.232;2022-11-30T01:57:16;11.30;98.90
20526;DHT22;10421;49.142;9.232;2022-11-30T01:59:45;11.30;99.00
20526;DHT22;10421;49.142;9.232;2022-11-30T02:02:14;11.30;99.00
20526;DHT22;10421;49.142;9.232;2022-11-30T02:04:42;11.30;99.00
20526;DHT22;10421;49.142;9.232;2022-11-30T02:07:09;11.30;99.00
20526;DHT22;10421;49.142;9.232;2022-11-30T02:09:41;11.30;99.00
20526;DHT22;10421;49.142;9.232;2022-11-30T02:12:17;11.30;99.00
20526;DHT22;10421;49.142;9.232;2022-11-30T02:14:48;11.30;98.90
20526;DHT22;10421;49.142;9.232;2022-11-30T02:17:23;11.30;99.00
20526;DHT22;10421;49.142;9.232;2022-11-30T02:25:55;11.30;98.90
20526;DHT22;10421;49.142;9.232;2022-11-30T02:28:58;11.30;98.90
20526;DHT22;10421;49.142;9.232;2022-11-30T02:31:32;11.30;98.90
20526;DHT22;10421;49.142;9.232;2022-11-30T02:34:02;11.30;98.90
20526;DHT22;10421;49.142;9.232;2022-11-30T02:36:30;11.30;98.90
20526;DHT22;10421;49.142;9.232;2022-11-30T02:38:58;11.20;98.90
20526;DHT22;10421;49.142;9.232;2022-11-30T02:41:24;11.20;98.90
20526;DHT22;10421;49.142;9.232;2022-11-30T02:43:51;11.20;99.00
20526;DHT22;10421;49.142;9.232;2022-11-30T02:46:24;11.20;99.00
20526;DHT22;10421;49.142;9.232;2022-11-30T02:48:57;11.10;99.10
20526;DHT22;10421;49.142;9.232;2022-11-30T02:51:27;11.00;99.10
20526;DHT22;10421;49.142;9.232;2022-11-30T02:53:55;11.00;99.30
20526;DHT22;10421;49.142;9.232;2022-11-30T02:56:22;11.00;99.30
20526;DHT22;10421;49.142;9.232;2022-11-30T02:58:50;11.00;99.30
20526;DHT22;10421;49.142;9.232;2022-11-30T03:01:19;11.00;99.30
20526;DHT22;10421;49.142;9.232;2022-11-30T03:03:46;11.00;99.30
20526;DHT22;10421;49.142;9.232;2022-11-30T03:06:13;11.00;99.30
20526;DHT22;10421;49.142;9.232;2022-11-30T03:08:40;11.00;99.30
20526;DHT22;10421;49.142;9.232;2022-11-30T03:11:06;11.00;99.30
20526;DHT22;10421;49.142;9.232;2022-11-30T03:13:33;11.00;99.40
20526;DHT22;10421;49.142;9.232;2022-11-30T03:16:05;11.00;99.50
20526;DHT22;10421;49.142;9.232;2022-11-30T03:18:34;11.00;99.50
20526;DHT22;10421;49.142;9.232;2022-11-30T03:21:04;11.00;99.40
20526;DHT22;10421;49.142;9.232;2022-11-30T03:23:32;11.00;99.40
20526;DHT22;10421;49.142;9.232;2022-11-30T03:25:59;10.90;99.30
20526;DHT22;10421;49.142;9.232;2022-11-30T03:28:26;11.00;99.40
20526;DHT22;10421;49.142;9.232;2022-11-30T03:30:53;10.90;99.40
20526;DHT22;10421;49.142;9.232;2022-11-30T03:33:20;10.90;99.50
20526;DHT22;10421;49.142;9.232;2022-11-30T03:35:48;10.90;99.50
20526;DHT22;10421;49.142;9.232;2022-11-30T03:38:23;10.90;99.50
20526;DHT22;10421;49.142;9.232;2022-11-30T03:40:49;10.90;99.50
20526;DHT22;10421;49.142;9.232;2022-11-30T03:43:16;10.90;99.50
20526;DHT22;10421;49.142;9.232;2022-11-30T03:45:44;10.90;99.50
20526;DHT22;10421;49.142;9.232;2022-11-30T03:48:11;10.90;99.50
20526;DHT22;10421;49.142;9.232;2022-11-30T03:50:37;10.90;99.50
20526;DHT22;10421;49.142;9.232;2022-11-30T03:53:05;10.90;99.40
20526;DHT22;10421;49.142;9.232;2022-11-30T03:55:32;10.80;99.50
20526;DHT22;10421;49.142;9.232;2022-11-30T03:58:00;10.80;99.50
20526;DHT22;10421;49.142;9.232;2022-11-30T04:00:26;10.90;99.50
20526;DHT22;10421;49.142;9.232;2022-11-30T04:02:53;10.90;99.50
20526;DHT22;10421;49.142;9.232;2022-11-30T04:05:20;11.00;99.50
20526;DHT22;10421;49.142;9.232;2022-11-30T04:07:47;11.00;99.40
20526;DHT22;10421;49.142;9.232;2022-11-30T04:10:15;11.00;99.40
20526;DHT22;10421;49.142;9.232;2022-11-30T04:12:41;11.00;99.40
20526;DHT22;10421;49.142;9.232;2022-11-30T04:15:09;11.10;99.40
20526;DHT22;10421;49.142;9.232;2022-11-30T04:17:36;11.10;99.30
20526;DHT22;10421;49.142;9.232;2022-11-30T04:20:03;11.10;99.30
20526;DHT22;10421;49.142;9.232;2022-11-30T04:22:30;11.10;99.30
20526;DHT22;10421;49.142;9.232;2022-11-30T04:24:58;11.10;99.30
20526;DHT22;10421;49.142;9.232;2022-11-30T04:27:27;11.10;99.20
20526;DHT22;10421;49.142;9.232;2022-11-30T04:29:54;11.10;99.20
20526;DHT22;10421;49.142;9.232;2022-11-30T04:32:20;11.20;99.20
20526;DHT22;10421;49.142;9.232;2022-11-30T04:34:47;11.20;99.20
20526;DHT22;10421;49.142;9.232;2022-11-30T04:37:14;11.20;99.20
20526;DHT22;10421;49.142;9.232;2022-11-30T04:39:40;11.20;99.20
20526;DHT22;10421;49.142;9.232;2022-11-30T04:42:07;11.20;99.20
20526;DHT22;10421;49.142;9.232;2022-11-30T04:44:35;11.10;99.10
20526;DHT22;10421;49.142;9.232;2022-11-30T04:47:02;11.20;99.20
20526;DHT22;10421;49.142;9.232;2022-11-30T04:49:29;11.20;99.10
20526;DHT22;10421;49.142;9.232;2022-11-30T04:51:56;11.20;99.10
20526;DHT22;10421;49.142;9.232;2022-11-30T04:54:22;11.20;99.20
20526;DHT22;10421;49.142;9.232;2022-11-30T04:56:49;11.20;99.10
20526;DHT22;10421;49.142;9.232;2022-11-30T04:59:16;11.20;99.10
20526;DHT22;10421;49.142;9.232;2022-11-30T05:01:44;11.10;99.10
20526;DHT22;10421;49.142;9.232;2022-11-30T05:04:11;11.10;99.00
20526;DHT22;10421;49.142;9.232;2022-11-30T05:06:37;11.20;99.10
20526;DHT22;10421;49.142;9.232;2022-11-30T05:09:04;11.20;99.10
20526;DHT22;10421;49.142;9.232;2022-11-30T05:11:31;11.20;99.10
20526;DHT22;10421;49.142;9.232;2022-11-30T05:13:58;11.20;99.10
20526;DHT22;10421;49.142;9.232;2022-11-30T05:16:24;11.20;99.00
20526;DHT22;10421;49.142;9.232;2022-11-30T05:18:52;11.20;99.10
20526;DHT22;10421;49.142;9.232;2022-11-30T05:21:19;11.20;99.00
20526;DHT22;10421;49.142;9.232;2022-11-30T05:23:46;11.20;99.00
20526;DHT22;10421;49.142;9.232;2022-11-30T05:26:13;11.30;99.00
20526;DHT22;10421;49.142;9.232;2022-11-30T05:28:40;11.20;99.30
20526;DHT22;10421;49.142;9.232;2022-11-30T05:31:06;11.20;98.90
20526;DHT22;10421;49.142;9.232;2022-11-30T05:33:33;11.20;98.90
20526;DHT22;10421;49.142;9.232;2022-11-30T05:36:02;11.20;98.90
20526;DHT22;10421;49.142;9.232;2022-11-30T05:38:28;11.20;98.90
20526;DHT22;10421;49.142;9.232;2022-11-30T05:40:58;11.20;98.90
20526;DHT22;10421;49.142;9.232;2022-11-30T05:43:25;11.20;98.90
20526;DHT22;10421;49.142;9.232;2022-11-30T05:45:58;11.20;98.90
20526;DHT22;10421;49.142;9.232;2022-11-30T05:48:25;11.20;98.90
20526;DHT22;10421;49.142;9.232;2022-11-30T05:50:51;11.20;98.90
20526;DHT22;10421;49.142;9.232;2022-11-30T05:53:19;11.20;98.90
20526;DHT22;10421;49.142;9.232;2022-11-30T05:55:46;11.20;98.90
20526;DHT22;10421;49.142;9.232;2022-11-30T05:58:13;11.20;98.90
20526;DHT22;10421;49.142;9.232;2022-11-30T06:00:40;11.20;98.80
20526;DHT22;10421;49.142;9.232;2022-11-30T06:03:06;11.20;98.90
20526;DHT22;10421;49.142;9.232;2022-11-30T06:05:33;11.20;98.90
20526;DHT22;10421;49.142;9.232;2022-11-30T06:08:01;11.20;98.90
20526;DHT22;10421;49.142;9.232;2022-11-30T06:10:29;11.20;98.90
20526;DHT22;10421;49.142;9.232;2022-11-30T06:12:56;11.30;98.90
20526;DHT22;10421;49.142;9.232;2022-11-30T06:15:22;11.20;98.90
20526;DHT22;10421;49.142;9.232;2022-11-30T06:17:49;11.30;98.90
20526;DHT22;10421;49.142;9.232;2022-11-30T06:20:16;11.20;98.80
20526;DHT22;10421;49.142;9.232;2022-11-30T06:22:44;11.20;98.90
20526;DHT22;10421;49.142;9.232;2022-11-30T06:25:12;11.10;98.90
20526;DHT22;10421;49.142;9.232;2022-11-30T06:27:42;11.20;98.90
20526;DHT22;10421;49.142;9.232;2022-11-30T06:30:10;11.20;98.90
20526;DHT22;10421;49.142;9.232;2022-11-30T06:32:37;11.20;98.90
20526;DHT22;10421;49.142;9.232;2022-11-30T06:35:04;11.20;99.00
20526;DHT22;10421;49.142;9.232;2022-11-30T06:37:33;11.20;99.00
20526;DHT22;10421;49.142;9.232;2022-11-30T06:40:00;11.20;99.00
20526;DHT22;10421;49.142;9.232;2022-11-30T06:42:27;11.20;99.00
20526;DHT22;10421;49.142;9.232;2022-11-30T06:44:56;11.30;99.00
20526;DHT22;10421;49.142;9.232;2022-11-30T06:47:23;11.30;99.00
20526;DHT22;10421;49.142;9.232;2022-11-30T06:49:50;11.30;99.00
20526;DHT22;10421;49.142;9.232;2022-11-30T06:52:16;11.30;99.00
20526;DHT22;10421;49.142;9.232;2022-11-30T06:54:43;11.30;99.10
20526;DHT22;10421;49.142;9.232;2022-11-30T06:57:10;11.30;99.10
20526;DHT22;10421;49.142;9.232;2022-11-30T06:59:37;11.20;99.00
20526;DHT22;10421;49.142;9.232;2022-11-30T07:02:10;11.20;99.00
20526;DHT22;10421;49.142;9.232;2022-11-30T07:04:37;11.30;99.10
20526;DHT22;10421;49.142;9.232;2022-11-30T07:07:03;11.30;99.10
20526;DHT22;10421;49.142;9.232;2022-11-30T07:09:32;11.30;99.10
20526;DHT22;10421;49.142;9.232;2022-11-30T07:11:58;11.30;99.00
20526;DHT22;10421;49.142;9.232;2022-11-30T07:14:25;11.30;99.10
20526;DHT22;10421;49.142;9.232;2022-11-30T07:16:52;11.40;99.10
20526;DHT22;10421;49.142;9.232;2022-11-30T07:19:20;11.40;99.10
20526;DHT22;10421;49.142;9.232;2022-11-30T07:21:47;11.40;99.00
20526;DHT22;10421;49.142;9.232;2022-11-30T07:24:14;11.40;99.00
20526;DHT22;10421;49.142;9.232;2022-11-30T07:26:59;11.40;99.00
20526;DHT22;10421;49.142;9.232;2022-11-30T07:29:27;11.30;99.00
20526;DHT22;10421;49.142;9.232;2022-11-30T07:31:54;11.30;99.00
20526;DHT22;10421;49.142;9.232;2022-11-30T07:34:22;11.30;99.00
20526;DHT22;10421;49.142;9.232;2022-11-30T07:36:49;11.30;99.00
20526;DHT22;10421;49.142;9.232;2022-11-30T07:39:15;11.30;99.00
20526;DHT22;10421;49.142;9.232;2022-11-30T07:41:42;11.40;99.10
20526;DHT22;10421;49.142;9.232;2022-11-30T07:44:09;11.40;99.00
20526;DHT22;10421;49.142;9.232;2022-11-30T07:46:37;11.40;99.10
20526;DHT22;10421;49.142;9.232;2022-11-30T07:49:05;11.30;99.10
20526;DHT22;10421;49.142;9.232;2022-11-30T07:51:34;11.30;99.10
20526;DHT22;10421;49.142;9.232;2022-11-30T07:54:01;11.30;99.10
20526;DHT22;10421;49.142;9.232;2022-11-30T07:56:28;11.30;99.10
20526;DHT22;10421;49.142;9.232;2022-11-30T07:58:57;11.30;99.10
20526;DHT22;10421;49.142;9.232;2022-11-30T08:01:26;11.40;99.20
20526;DHT22;10421;49.142;9.232;2022-11-30T08:03:53;11.40;99.20
20526;DHT22;10421;49.142;9.232;2022-11-30T08:06:21;11.40;99.60
20526;DHT22;10421;49.142;9.232;2022-11-30T08:08:51;11.40;99.20
20526;DHT22;10421;49.142;9.232;2022-11-30T08:11:20;11.40;99.20
20526;DHT22;10421;49.142;9.232;2022-11-30T08:13:47;11.50;99.20
20526;DHT22;10421;49.142;9.232;2022-11-30T08:16:15;11.50;99.20
20526;DHT22;10421;49.142;9.232;2022-11-30T08:18:42;11.60;99.10
20526;DHT22;10421;49.142;9.232;2022-11-30T08:21:12;11.60;99.00
20526;DHT22;10421;49.142;9.232;2022-11-30T08:23:40;11.50;98.90
20526;DHT22;10421;49.142;9.232;2022-11-30T08:26:11;11.50;98.90
20526;DHT22;10421;49.142;9.232;2022-11-30T08:28:38;11.50;98.90
20526;DHT22;10421;49.142;9.232;2022-11-30T08:31:07;11.50;98.90
20526;DHT22;10421;49.142;9.232;2022-11-30T08:33:34;11.60;98.90
20526;DHT22;10421;49.142;9.232;2022-11-30T08:36:06;11.60;98.80
20526;DHT22;10421;49.142;9.232;2022-11-30T08:38:33;11.60;98.70
20526;DHT22;10421;49.142;9.232;2022-11-30T08:41:00;11.60;98.70
20526;DHT22;10421;49.142;9.232;2022-11-30T08:43:28;11.60;98.70
20526;DHT22;10421;49.142;9.232;2022-11-30T08:45:55;11.60;98.60
20526;DHT22;10421;49.142;9.232;2022-11-30T08:48:22;11.60;98.60
20526;DHT22;10421;49.142;9.232;2022-11-30T08:50:49;11.60;98.60
20526;DHT22;10421;49.142;9.232;2022-11-30T08:53:15;11.60;98.60
20526;DHT22;10421;49.142;9.232;2022-11-30T08:55:42;11.60;98.50
20526;DHT22;10421;49.142;9.232;2022-11-30T08:58:09;11.60;98.50
20526;DHT22;10421;49.142;9.232;2022-11-30T09:00:37;11.60;98.50
20526;DHT22;10421;49.142;9.232;2022-11-30T09:03:04;11.60;98.50
20526;DHT22;10421;49.142;9.232;2022-11-30T09:05:31;11.60;98.50
20526;DHT22;10421;49.142;9.232;2022-11-30T09:07:57;11.60;98.50
20526;DHT22;10421;49.142;9.232;2022-11-30T09:10:24;11.50;98.40
20526;DHT22;10421;49.142;9.232;2022-11-30T09:12:51;11.50;98.50
20526;DHT22;10421;49.142;9.232;2022-11-30T09:15:17;11.50;98.50
20526;DHT22;10421;49.142;9.232;2022-11-30T09:17:46;11.50;98.50
20526;DHT22;10421;49.142;9.232;2022-11-30T09:20:12;11.50;98.50
20526;DHT22;10421;49.142;9.232;2022-11-30T09:22:39;11.50;98.40
20526;DHT22;10421;49.142;9.232;2022-11-30T09:25:07;11.50;98.50
20526;DHT22;10421;49.142;9.232;2022-11-30T09:27:34;11.60;98.50
20526;DHT22;10421;49.142;9.232;2022-11-30T09:30:02;11.60;98.50
20526;DHT22;10421;49.142;9.232;2022-11-30T09:32:28;11.50;98.40
20526;DHT22;10421;49.142;9.232;2022-11-30T09:34:56;11.50;98.50
20526;DHT22;10421;49.142;9.232;2022-11-30T09:37:23;11.50;98.50
20526;DHT22;10421;49.142;9.232;2022-11-30T09:39:50;11.50;98.80
20526;DHT22;10421;49.142;9.232;2022-11-30T09:42:24;11.60;98.50
20526;DHT22;10421;49.142;9.232;2022-11-30T09:44:59;11.60;98.50
20526;DHT22;10421;49.142;9.232;2022-11-30T09:50:50;11.70;98.40
20526;DHT22;10421;49.142;9.232;2022-11-30T09:53:20;11.70;98.40
20526;DHT22;10421;49.142;9.232;2022-11-30T09:55:48;11.70;98.30
20526;DHT22;10421;49.142;9.232;2022-11-30T09:58:22;11.70;98.40
20526;DHT22;10421;49.142;9.232;2022-11-30T10:00:50;11.70;98.40
20526;DHT22;10421;49.142;9.232;2022-11-30T10:03:18;11.80;98.40
20526;DHT22;10421;49.142;9.232;2022-11-30T10:05:49;11.80;98.40
20526;DHT22;10421;49.142;9.232;2022-11-30T10:08:35;11.80;98.30
20526;DHT22;10421;49.142;9.232;2022-11-30T10:11:25;11.90;98.30
20526;DHT22;10421;49.142;9.232;2022-11-30T10:14:01;11.70;98.10
20526;DHT22;10421;49.142;9.232;2022-11-30T10:16:37;11.80;98.20
20526;DHT22;10421;49.142;9.232;2022-11-30T10:19:14;11.80;98.10
20526;DHT22;10421;49.142;9.232;2022-11-30T10:21:58;11.90;98.10
20526;DHT22;10421;49.142;9.232;2022-11-30T10:24:34;11.80;98.00
20526;DHT22;10421;49.142;9.232;2022-11-30T10:27:10;11.90;98.00
20526;DHT22;10421;49.142;9.232;2022-11-30T10:29:41;11.90;98.00
20526;DHT22;10421;49.142;9.232;2022-11-30T10:32:12;12.00;98.00
20526;DHT22;10421;49.142;9.232;2022-11-30T10:34:40;12.00;97.90
20526;DHT22;10421;49.142;9.232;2022-11-30T10:37:14;12.00;97.90
20526;DHT22;10421;49.142;9.232;2022-11-30T10:39:46;12.00;97.80
20526;DHT22;10421;49.142;9.232;2022-11-30T10:42:21;12.00;97.70
20526;DHT22;10421;49.142;9.232;2022-11-30T10:44:58;12.00;97.60
20526;DHT22;10421;49.142;9.232;2022-11-30T10:47:27;12.00;97.60
20526;DHT22;10421;49.142;9.232;2022-11-30T10:49:55;12.00;97.50
20526;DHT22;10421;49.142;9.232;2022-11-30T10:52:25;12.00;97.50
20526;DHT22;10421;49.142;9.232;2022-11-30T10:54:54;12.10;97.50
20526;DHT22;10421;49.142;9.232;2022-11-30T10:57:21;12.10;97.40
20526;DHT22;10421;49.142;9.232;2022-11-30T10:59:52;12.10;97.30
20526;DHT22;10421;49.142;9.232;2022-11-30T11:02:38;12.10;97.20
20526;DHT22;10421;49.142;9.232;2022-11-30T11:05:18;12.20;97.20
20526;DHT22;10421;49.142;9.232;2022-11-30T11:07:52;12.20;97.20
20526;DHT22;10421;49.142;9.232;2022-11-30T11:10:25;12.10;97.10
20526;DHT22;10421;49.142;9.232;2022-11-30T11:12:54;12.20;97.20
20526;DHT22;10421;49.142;9.232;2022-11-30T11:15:22;12.20;97.20
20526;DHT22;10421;49.142;9.232;2022-11-30T11:17:50;12.10;97.20
20526;DHT22;10421;49.142;9.232;2022-11-30T11:20:30;12.10;97.20
20526;DHT22;10421;49.142;9.232;2022-11-30T11:23:00;12.10;97.20
20526;DHT22;10421;49.142;9.232;2022-11-30T11:25:32;12.10;97.20
20526;DHT22;10421;49.142;9.232;2022-11-30T11:28:04;12.00;97.20
20526;DHT22;10421;49.142;9.232;2022-11-30T11:30:34;12.00;97.10
20526;DHT22;10421;49.142;9.232;2022-11-30T11:33:07;12.10;97.20
20526;DHT22;10421;49.142;9.232;2022-11-30T11:35:45;12.00;97.10
20526;DHT22;10421;49.142;9.232;2022-11-30T11:38:23;12.00;97.10
20526;DHT22;10421;49.142;9.232;2022-11-30T11:40:52;12.00;97.10
20526;DHT22;10421;49.142;9.232;2022-11-30T11:43:20;12.00;97.10
20526;DHT22;10421;49.142;9.232;2022-11-30T11:45:50;12.00;97.10
20526;DHT22;10421;49.142;9.232;2022-11-30T11:48:31;12.00;97.10
20526;DHT22;10421;49.142;9.232;2022-11-30T11:51:00;12.10;97.10
20526;DHT22;10421;49.142;9.232;2022-11-30T11:53:42;12.10;97.20
20526;DHT22;10421;49.142;9.232;2022-11-30T11:56:12;12.10;97.20
20526;DHT22;10421;49.142;9.232;2022-11-30T11:58:46;12.10;97.20
20526;DHT22;10421;49.142;9.232;2022-11-30T12:01:22;12.10;97.30
20526;DHT22;10421;49.142;9.232;2022-11-30T12:03:59;12.10;97.30
20526;DHT22;10421;49.142;9.232;2022-11-30T12:06:28;12.10;97.30
20526;DHT22;10421;49.142;9.232;2022-11-30T12:09:02;12.10;97.20
20526;DHT22;10421;49.142;9.232;2022-11-30T12:11:38;12.10;97.10
20526;DHT22;10421;49.142;9.232;2022-11-30T12:14:11;12.20;97.20
20526;DHT22;10421;49.142;9.232;2022-11-30T12:19:36;12.20;97.10
20526;DHT22;10421;49.142;9.232;2022-11-30T12:22:21;12.20;97.10
20526;DHT22;10421;49.142;9.232;2022-11-30T12:25:13;12.30;97.10
20526;DHT22;10421;49.142;9.232;2022-11-30T12:27:48;12.30;97.10
20526;DHT22;10421;49.142;9.232;2022-11-30T12:30:20;12.30;97.00
20526;DHT22;10421;49.142;9.232;2022-11-30T12:35:49;12.40;96.90
20526;DHT22;10421;49.142;9.232;2022-11-30T12:38:30;12.40;96.80
20526;DHT22;10421;49.142;9.232;2022-11-30T12:41:06;12.40;96.80
20526;DHT22;10421;49.142;9.232;2022-11-30T12:43:46;12.40;96.80
20526;DHT22;10421;49.142;9.232;2022-11-30T12:46:20;12.40;96.70
20526;DHT22;10421;49.142;9.232;2022-11-30T12:49:00;12.40;96.70
20526;DHT22;10421;49.142;9.232;2022-11-30T12:51:34;12.40;96.60
20526;DHT22;10421;49.142;9.232;2022-11-30T12:54:08;12.30;96.50
20526;DHT22;10421;49.142;9.232;2022-11-30T12:56:42;12.30;96.50
20526;DHT22;10421;49.142;9.232;2022-11-30T12:59:20;12.30;96.50
20526;DHT22;10421;49.142;9.232;2022-11-30T13:02:03;12.30;96.70
20526;DHT22;10421;49.142;9.232;2022-11-30T13:04:41;12.30;96.30
20526;DHT22;10421;49.142;9.232;2022-11-30T13:07:19;12.30;96.30
20526;DHT22;10421;49.142;9.232;2022-11-30T13:09:52;12.30;96.30
20526;DHT22;10421;49.142;9.232;2022-11-30T13:12:23;12.40;96.30
20526;DHT22;10421;49.142;9.232;2022-11-30T13:14:54;12.40;96.20
20526;DHT22;10421;49.142;9.232;2022-11-30T13:17:24;12.20;96.10
20526;DHT22;10421;49.142;9.232;2022-11-30T13:19:57;12.20;96.10
20526;DHT22;10421;49.142;9.232;2022-11-30T13:22:39;12.30;96.10
20526;DHT22;10421;49.142;9.232;2022-11-30T13:25:19;12.10;95.90
20526;DHT22;10421;49.142;9.232;2022-11-30T13:27:54;12.10;95.90
20526;DHT22;10421;49.142;9.232;2022-11-30T13:30:30;12.00;95.90
20526;DHT22;10421;49.142;9.232;2022-11-30T13:35:59;12.20;95.90
20526;DHT22;10421;49.142;9.232;2022-11-30T13:38:30;12.20;95.90
20526;DHT22;10421;49.142;9.232;2022-11-30T13:40:59;12.20;95.90
20526;DHT22;10421;49.142;9.232;2022-11-30T13:43:29;12.20;95.90
20526;DHT22;10421;49.142;9.232;2022-11-30T13:46:13;12.30;95.90
20526;DHT22;10421;49.142;9.232;2022-11-30T13:48:42;12.20;96.00
20526;DHT22;10421;49.142;9.232;2022-11-30T13:51:10;12.20;96.00
20526;DHT22;10421;49.142;9.232;2022-11-30T13:53:39;12.30;96.00
20526;DHT22;10421;49.142;9.232;2022-11-30T13:56:31;12.30;96.10
20526;DHT22;10421;49.142;9.232;2022-11-30T14:05:40;12.30;96.20
20526;DHT22;10421;49.142;9.232;2022-11-30T14:08:32;12.30;96.30
20526;DHT22;10421;49.142;9.232;2022-11-30T14:11:38;12.30;96.40
20526;DHT22;10421;49.142;9.232;2022-11-30T14:14:43;12.30;96.40
20526;DHT22;10421;49.142;9.232;2022-11-30T14:17:16;12.30;96.50
20526;DHT22;10421;49.142;9.232;2022-11-30T14:19:46;12.30;96.50
20526;DHT22;10421;49.142;9.232;2022-11-30T14:22:17;12.20;96.60
20526;DHT22;10421;49.142;9.232;2022-11-30T14:24:45;12.20;96.60
20526;DHT22;10421;49.142;9.232;2022-11-30T14:27:16;12.10;96.90
20526;DHT22;10421;49.142;9.232;2022-11-30T14:29:48;12.00;96.60
20526;DHT22;10421;49.142;9.232;2022-11-30T14:32:23;11.90;96.70
20526;DHT22;10421;49.142;9.232;2022-11-30T14:34:54;11.90;96.80
20526;DHT22;10421;49.142;9.232;2022-11-30T14:37:32;11.90;96.90
20526;DHT22;10421;49.142;9.232;2022-11-30T14:40:02;11.90;96.90
20526;DHT22;10421;49.142;9.232;2022-11-30T14:42:31;12.00;96.90
20526;DHT22;10421;49.142;9.232;2022-11-30T14:44:58;12.00;97.00
20526;DHT22;10421;49.142;9.232;2022-11-30T14:47:28;11.80;97.30
20526;DHT22;10421;49.142;9.232;2022-11-30T14:49:57;11.70;97.50
20526;DHT22;10421;49.142;9.232;2022-11-30T14:52:46;11.70;97.60
20526;DHT22;10421;49.142;9.232;2022-11-30T14:55:23;11.70;97.70
20526;DHT22;10421;49.142;9.232;2022-11-30T14:57:58;11.60;97.60
20526;DHT22;10421;49.142;9.232;2022-11-30T15:00:35;11.60;97.70
20526;DHT22;10421;49.142;9.232;2022-11-30T15:03:04;11.50;97.70
20526;DHT22;10421;49.142;9.232;2022-11-30T15:05:42;11.60;97.70
20526;DHT22;10421;49.142;9.232;2022-11-30T15:08:13;11.60;97.60
20526;DHT22;10421;49.142;9.232;2022-11-30T15:10:40;11.60;97.60
20526;DHT22;10421;49.142;9.232;2022-11-30T15:13:10;11.60;97.60
20526;DHT22;10421;49.142;9.232;2022-11-30T15:15:49;11.70;97.50
20526;DHT22;10421;49.142;9.232;2022-11-30T15:18:17;11.70;97.40
20526;DHT22;10421;49.142;9.232;2022-11-30T15:20:48;11.70;97.40
20526;DHT22;10421;49.142;9.232;2022-11-30T15:23:18;11.70;97.30
20526;DHT22;10421;49.142;9.232;2022-11-30T15:25:46;11.50;97.20
20526;DHT22;10421;49.142;9.232;2022-11-30T15:28:17;11.40;97.30
20526;DHT22;10421;49.142;9.232;2022-11-30T15:30:46;11.40;97.30
20526;DHT22;10421;49.142;9.232;2022-11-30T15:33:17;11.40;97.30
20526;DHT22;10421;49.142;9.232;2022-11-30T15:35:46;11.40;97.30
20526;DHT22;10421;49.142;9.232;2022-11-30T15:38:18;11.40;97.40
20526;DHT22;10421;49.142;9.232;2022-11-30T15:40:47;11.30;97.30
20526;DHT22;10421;49.142;9.232;2022-11-30T15:43:20;11.30;97.40
20526;DHT22;10421;49.142;9.232;2022-11-30T15:45:52;11.20;97.40
20526;DHT22;10421;49.142;9.232;2022-11-30T15:48:28;11.20;97.40
20526;DHT22;10421;49.142;9.232;2022-11-30T15:50:55;11.30;97.30
20526;DHT22;10421;49.142;9.232;2022-11-30T15:53:32;11.20;97.20
20526;DHT22;10421;49.142;9.232;2022-11-30T15:56:02;11.30;97.20
20526;DHT22;10421;49.142;9.232;2022-11-30T15:58:36;11.20;97.00
20526;DHT22;10421;49.142;9.232;2022-11-30T16:01:12;11.10;97.00
20526;DHT22;10421;49.142;9.232;2022-11-30T16:04:00;11.10;97.00
20526;DHT22;10421;49.142;9.232;2022-11-30T16:06:29;11.10;97.00
20526;DHT22;10421;49.142;9.232;2022-11-30T16:09:03;11.10;97.00
20526;DHT22;10421;49.142;9.232;2022-11-30T16:11:32;11.00;96.90
20526;DHT22;10421;49.142;9.232;2022-11-30T16:13:59;11.00;96.90